sensor_id;sensor_type;location;lat;lon;timestamp;P1;durP1;ratioP1;P2;durP2;ratioP2
616;SDS011;295;51.628;7.520;2022-08-19T00:01:12;7.93;;;7.20;;
616;SDS011;295;51.628;7.520;2022-08-19T00:04:15;8.97;;;8.17;;
616;SDS011;295;51.628;7.520;2022-08-19T00:07:05;9.67;;;8.50;;
616;SDS011;295;51.628;7.520;2022-08-19T00:09:54;11.10;;;10.10;;
616;SDS011;295;51.628;7.520;2022-08-19T00:12:43;9.67;;;8.87;;
616;SDS011;295;51.628;7.520;2022-08-19T00:15:35;11.50;;;10.50;;
616;SDS011;295;51.628;7.520;2022-08-19T00:18:24;7.53;;;6.70;;
616;SDS011;295;51.628;7.520;2022-08-19T00:21:13;9.60;;;8.80;;
616;SDS011;295;51.628;7.520;2022-08-19T00:24:02;10.40;;;9.50;;
616;SDS011;295;51.628;7.520;2022-08-19T00:26:51;10.50;;;9.43;;
616;SDS011;295;51.628;7.520;2022-08-19T00:29:42;9.97;;;9.17;;
616;SDS011;295;51.628;7.520;2022-08-19T00:32:33;11.50;;;10.50;;
616;SDS011;295;51.628;7.520;2022-08-19T00:35:25;11.27;;;10.27;;
616;SDS011;295;51.628;7.520;2022-08-19T00:38:14;11.57;;;10.47;;
616;SDS011;295;51.628;7.520;2022-08-19T00:41:21;11.03;;;10.10;;
616;SDS011;295;51.628;7.520;2022-08-19T00:44:12;10.13;;;9.23;;
616;SDS011;295;51.628;7.520;2022-08-19T00:47:01;11.30;;;10.30;;
616;SDS011;295;51.628;7.520;2022-08-19T00:49:52;10.37;;;9.40;;
616;SDS011;295;51.628;7.520;2022-08-19T00:52:43;9.90;;;8.90;;
616;SDS011;295;51.628;7.520;2022-08-19T00:55:33;9.70;;;8.83;;
616;SDS011;295;51.628;7.520;2022-08-19T00:58:24;8.23;;;6.87;;
616;SDS011;295;51.628;7.520;2022-08-19T01:01:14;8.23;;;7.40;;
616;SDS011;295;51.628;7.520;2022-08-19T01:04:03;6.93;;;6.23;;
616;SDS011;295;51.628;7.520;2022-08-19T01:06:53;8.93;;;7.57;;
616;SDS011;295;51.628;7.520;2022-08-19T01:09:44;10.10;;;9.07;;
616;SDS011;295;51.628;7.520;2022-08-19T01:12:32;10.50;;;9.50;;
616;SDS011;295;51.628;7.520;2022-08-19T01:15:24;10.90;;;9.90;;
616;SDS011;295;51.628;7.520;2022-08-19T01:18:15;11.07;;;10.07;;
616;SDS011;295;51.628;7.520;2022-08-19T01:21:10;10.63;;;9.47;;
616;SDS011;295;51.628;7.520;2022-08-19T01:24:04;10.67;;;9.77;;
616;SDS011;295;51.628;7.520;2022-08-19T01:26:53;8.90;;;8.20;;
616;SDS011;295;51.628;7.520;2022-08-19T01:29:45;7.63;;;6.83;;
616;SDS011;295;51.628;7.520;2022-08-19T01:32:34;9.03;;;8.17;;
616;SDS011;295;51.628;7.520;2022-08-19T01:35:24;10.30;;;9.20;;
616;SDS011;295;51.628;7.520;2022-08-19T01:38:19;10.23;;;9.33;;
616;SDS011;295;51.628;7.520;2022-08-19T01:41:11;10.00;;;8.97;;
616;SDS011;295;51.628;7.520;2022-08-19T01:44:01;9.73;;;8.93;;
616;SDS011;295;51.628;7.520;2022-08-19T01:47:05;9.87;;;9.07;;
616;SDS011;295;51.628;7.520;2022-08-19T01:49:54;11.23;;;10.20;;
616;SDS011;295;51.628;7.520;2022-08-19T01:52:43;11.43;;;8.67;;
616;SDS011;295;51.628;7.520;2022-08-19T01:55:47;8.87;;;8.17;;
616;SDS011;295;51.628;7.520;2022-08-19T01:58:38;11.33;;;10.43;;
616;SDS011;295;51.628;7.520;2022-08-19T02:01:27;11.23;;;10.23;;
616;SDS011;295;51.628;7.520;2022-08-19T02:04:19;10.93;;;9.90;;
616;SDS011;295;51.628;7.520;2022-08-19T02:07:10;10.07;;;9.07;;
616;SDS011;295;51.628;7.520;2022-08-19T02:09:58;9.10;;;8.20;;
616;SDS011;295;51.628;7.520;2022-08-19T02:12:58;9.67;;;8.87;;
616;SDS011;295;51.628;7.520;2022-08-19T02:15:48;7.60;;;6.17;;
616;SDS011;295;51.628;7.520;2022-08-19T02:18:37;10.63;;;7.50;;
616;SDS011;295;51.628;7.520;2022-08-19T02:21:26;7.43;;;6.73;;
616;SDS011;295;51.628;7.520;2022-08-19T02:24:15;8.93;;;7.03;;
616;SDS011;295;51.628;7.520;2022-08-19T02:27:04;9.63;;;7.17;;
616;SDS011;295;51.628;7.520;2022-08-19T02:29:53;8.13;;;7.43;;
616;SDS011;295;51.628;7.520;2022-08-19T02:32:43;8.10;;;7.30;;
616;SDS011;295;51.628;7.520;2022-08-19T02:35:32;11.87;;;10.77;;
616;SDS011;295;51.628;7.520;2022-08-19T02:38:21;9.87;;;8.97;;
616;SDS011;295;51.628;7.520;2022-08-19T02:41:14;11.57;;;10.57;;
616;SDS011;295;51.628;7.520;2022-08-19T02:44:04;10.87;;;9.73;;
616;SDS011;295;51.628;7.520;2022-08-19T02:47:13;11.73;;;10.60;;
616;SDS011;295;51.628;7.520;2022-08-19T02:50:04;12.03;;;10.20;;
616;SDS011;295;51.628;7.520;2022-08-19T02:52:53;11.40;;;10.50;;
616;SDS011;295;51.628;7.520;2022-08-19T02:55:43;12.77;;;11.60;;
616;SDS011;295;51.628;7.520;2022-08-19T02:58:32;11.70;;;10.70;;
616;SDS011;295;51.628;7.520;2022-08-19T03:01:21;12.53;;;11.20;;
616;SDS011;295;51.628;7.520;2022-08-19T03:04:12;12.57;;;11.50;;
616;SDS011;295;51.628;7.520;2022-08-19T03:07:03;11.70;;;10.70;;
616;SDS011;295;51.628;7.520;2022-08-19T03:09:57;13.13;;;11.67;;
616;SDS011;295;51.628;7.520;2022-08-19T03:12:46;13.13;;;11.87;;
616;SDS011;295;51.628;7.520;2022-08-19T03:15:38;14.53;;;12.60;;
616;SDS011;295;51.628;7.520;2022-08-19T03:18:27;12.40;;;11.13;;
616;SDS011;295;51.628;7.520;2022-08-19T03:21:17;8.87;;;7.87;;
616;SDS011;295;51.628;7.520;2022-08-19T03:24:08;13.40;;;12.20;;
616;SDS011;295;51.628;7.520;2022-08-19T03:26:57;13.27;;;11.97;;
616;SDS011;295;51.628;7.520;2022-08-19T03:29:46;13.70;;;12.40;;
616;SDS011;295;51.628;7.520;2022-08-19T03:32:35;16.83;;;14.40;;
616;SDS011;295;51.628;7.520;2022-08-19T03:35:31;15.03;;;12.73;;
616;SDS011;295;51.628;7.520;2022-08-19T03:38:23;14.80;;;13.40;;
616;SDS011;295;51.628;7.520;2022-08-19T03:41:14;15.07;;;13.67;;
616;SDS011;295;51.628;7.520;2022-08-19T03:44:03;14.00;;;12.60;;
616;SDS011;295;51.628;7.520;2022-08-19T03:46:58;14.23;;;12.80;;
616;SDS011;295;51.628;7.520;2022-08-19T03:49:47;15.80;;;14.30;;
616;SDS011;295;51.628;7.520;2022-08-19T03:52:36;14.47;;;13.17;;
616;SDS011;295;51.628;7.520;2022-08-19T03:55:31;15.80;;;14.17;;
616;SDS011;295;51.628;7.520;2022-08-19T03:58:21;14.90;;;13.40;;
616;SDS011;295;51.628;7.520;2022-08-19T04:01:11;14.73;;;13.33;;
616;SDS011;295;51.628;7.520;2022-08-19T04:04:01;14.67;;;13.27;;
616;SDS011;295;51.628;7.520;2022-08-19T04:06:50;14.67;;;13.20;;
616;SDS011;295;51.628;7.520;2022-08-19T04:09:40;17.67;;;15.77;;
616;SDS011;295;51.628;7.520;2022-08-19T04:12:28;16.23;;;14.73;;
616;SDS011;295;51.628;7.520;2022-08-19T04:15:21;16.30;;;14.80;;
616;SDS011;295;51.628;7.520;2022-08-19T04:18:10;16.17;;;14.20;;
616;SDS011;295;51.628;7.520;2022-08-19T04:20:59;16.67;;;14.93;;
616;SDS011;295;51.628;7.520;2022-08-19T04:23:49;18.77;;;16.87;;
616;SDS011;295;51.628;7.520;2022-08-19T04:26:37;11.30;;;10.10;;
616;SDS011;295;51.628;7.520;2022-08-19T04:29:26;17.50;;;15.87;;
616;SDS011;295;51.628;7.520;2022-08-19T04:32:17;17.97;;;16.07;;
616;SDS011;295;51.628;7.520;2022-08-19T04:35:06;15.17;;;13.70;;
616;SDS011;295;51.628;7.520;2022-08-19T04:38:05;19.73;;;16.73;;
616;SDS011;295;51.628;7.520;2022-08-19T04:40:54;16.27;;;14.83;;
616;SDS011;295;51.628;7.520;2022-08-19T04:44:01;18.43;;;16.60;;
616;SDS011;295;51.628;7.520;2022-08-19T04:46:50;15.80;;;14.33;;
616;SDS011;295;51.628;7.520;2022-08-19T04:49:41;17.20;;;15.50;;
616;SDS011;295;51.628;7.520;2022-08-19T04:52:29;17.23;;;15.50;;
616;SDS011;295;51.628;7.520;2022-08-19T04:55:19;17.77;;;15.97;;
616;SDS011;295;51.628;7.520;2022-08-19T04:58:07;17.90;;;16.10;;
616;SDS011;295;51.628;7.520;2022-08-19T05:00:57;17.80;;;16.07;;
616;SDS011;295;51.628;7.520;2022-08-19T05:03:47;17.30;;;15.60;;
616;SDS011;295;51.628;7.520;2022-08-19T05:06:37;16.30;;;14.70;;
616;SDS011;295;51.628;7.520;2022-08-19T05:09:28;15.70;;;11.80;;
616;SDS011;295;51.628;7.520;2022-08-19T05:12:37;12.83;;;11.20;;
616;SDS011;295;51.628;7.520;2022-08-19T05:15:26;12.40;;;10.20;;
616;SDS011;295;51.628;7.520;2022-08-19T05:18:15;13.03;;;10.87;;
616;SDS011;295;51.628;7.520;2022-08-19T05:21:22;12.43;;;10.50;;
616;SDS011;295;51.628;7.520;2022-08-19T05:24:30;11.83;;;10.00;;
616;SDS011;295;51.628;7.520;2022-08-19T05:27:21;12.77;;;9.70;;
616;SDS011;295;51.628;7.520;2022-08-19T05:30:10;12.27;;;10.50;;
616;SDS011;295;51.628;7.520;2022-08-19T05:32:59;13.33;;;10.30;;
616;SDS011;295;51.628;7.520;2022-08-19T05:35:48;13.20;;;10.37;;
616;SDS011;295;51.628;7.520;2022-08-19T05:38:37;11.10;;;9.57;;
616;SDS011;295;51.628;7.520;2022-08-19T05:41:27;11.47;;;9.90;;
616;SDS011;295;51.628;7.520;2022-08-19T05:44:17;11.43;;;9.57;;
616;SDS011;295;51.628;7.520;2022-08-19T05:47:08;20.37;;;11.17;;
616;SDS011;295;51.628;7.520;2022-08-19T05:49:57;12.67;;;11.37;;
616;SDS011;295;51.628;7.520;2022-08-19T05:52:46;19.80;;;10.67;;
616;SDS011;295;51.628;7.520;2022-08-19T05:55:36;12.93;;;10.00;;
616;SDS011;295;51.628;7.520;2022-08-19T05:58:30;14.47;;;9.57;;
616;SDS011;295;51.628;7.520;2022-08-19T06:01:19;12.40;;;9.10;;
616;SDS011;295;51.628;7.520;2022-08-19T06:04:08;12.83;;;9.17;;
616;SDS011;295;51.628;7.520;2022-08-19T06:06:57;14.93;;;11.43;;
616;SDS011;295;51.628;7.520;2022-08-19T06:09:58;14.00;;;10.87;;
616;SDS011;295;51.628;7.520;2022-08-19T06:12:47;11.73;;;7.90;;
616;SDS011;295;51.628;7.520;2022-08-19T06:15:37;11.90;;;9.23;;
616;SDS011;295;51.628;7.520;2022-08-19T06:18:31;14.53;;;12.20;;
616;SDS011;295;51.628;7.520;2022-08-19T06:21:20;16.60;;;13.67;;
616;SDS011;295;51.628;7.520;2022-08-19T06:24:10;12.70;;;11.40;;
616;SDS011;295;51.628;7.520;2022-08-19T06:26:59;18.30;;;12.03;;
616;SDS011;295;51.628;7.520;2022-08-19T06:29:48;15.93;;;12.63;;
616;SDS011;295;51.628;7.520;2022-08-19T06:32:39;21.67;;;11.10;;
616;SDS011;295;51.628;7.520;2022-08-19T06:35:28;17.20;;;12.50;;
616;SDS011;295;51.628;7.520;2022-08-19T06:38:18;17.93;;;13.30;;
616;SDS011;295;51.628;7.520;2022-08-19T06:41:07;18.30;;;13.67;;
616;SDS011;295;51.628;7.520;2022-08-19T06:43:57;19.20;;;15.43;;
616;SDS011;295;51.628;7.520;2022-08-19T06:46:47;17.03;;;14.23;;
616;SDS011;295;51.628;7.520;2022-08-19T06:49:42;15.10;;;13.47;;
616;SDS011;295;51.628;7.520;2022-08-19T06:52:31;24.40;;;15.20;;
616;SDS011;295;51.628;7.520;2022-08-19T06:55:22;19.17;;;16.10;;
616;SDS011;295;51.628;7.520;2022-08-19T06:58:11;16.63;;;15.00;;
616;SDS011;295;51.628;7.520;2022-08-19T07:01:01;22.93;;;17.17;;
616;SDS011;295;51.628;7.520;2022-08-19T07:03:55;21.10;;;16.30;;
616;SDS011;295;51.628;7.520;2022-08-19T07:06:45;18.90;;;15.90;;
616;SDS011;295;51.628;7.520;2022-08-19T07:09:42;20.83;;;16.93;;
616;SDS011;295;51.628;7.520;2022-08-19T07:12:42;19.83;;;17.70;;
616;SDS011;295;51.628;7.520;2022-08-19T07:15:31;21.33;;;16.73;;
616;SDS011;295;51.628;7.520;2022-08-19T07:18:21;21.70;;;19.40;;
616;SDS011;295;51.628;7.520;2022-08-19T07:21:15;18.80;;;16.80;;
616;SDS011;295;51.628;7.520;2022-08-19T07:24:05;22.10;;;19.10;;
616;SDS011;295;51.628;7.520;2022-08-19T07:26:57;24.63;;;19.37;;
616;SDS011;295;51.628;7.520;2022-08-19T07:29:56;20.57;;;18.40;;
616;SDS011;295;51.628;7.520;2022-08-19T07:32:46;26.67;;;19.63;;
616;SDS011;295;51.628;7.520;2022-08-19T07:35:39;23.70;;;18.30;;
616;SDS011;295;51.628;7.520;2022-08-19T07:38:28;18.83;;;16.77;;
616;SDS011;295;51.628;7.520;2022-08-19T07:41:19;22.53;;;19.30;;
616;SDS011;295;51.628;7.520;2022-08-19T07:44:09;22.90;;;18.60;;
616;SDS011;295;51.628;7.520;2022-08-19T07:46:59;22.90;;;17.90;;
616;SDS011;295;51.628;7.520;2022-08-19T07:49:50;22.07;;;19.43;;
616;SDS011;295;51.628;7.520;2022-08-19T07:52:39;21.00;;;18.80;;
616;SDS011;295;51.628;7.520;2022-08-19T07:55:34;23.00;;;17.63;;
616;SDS011;295;51.628;7.520;2022-08-19T07:58:31;24.67;;;18.03;;
616;SDS011;295;51.628;7.520;2022-08-19T08:01:21;17.77;;;15.77;;
616;SDS011;295;51.628;7.520;2022-08-19T08:04:11;22.10;;;16.50;;
616;SDS011;295;51.628;7.520;2022-08-19T08:07:17;27.57;;;18.23;;
616;SDS011;295;51.628;7.520;2022-08-19T08:10:24;18.70;;;16.58;;
616;SDS011;295;51.628;7.520;2022-08-19T08:13:13;19.63;;;15.32;;
616;SDS011;295;51.628;7.520;2022-08-19T08:16:06;19.85;;;16.15;;
616;SDS011;295;51.628;7.520;2022-08-19T08:19:00;20.60;;;16.77;;
616;SDS011;295;51.628;7.520;2022-08-19T08:22:02;20.98;;;17.48;;
616;SDS011;295;51.628;7.520;2022-08-19T08:24:52;18.08;;;15.75;;
616;SDS011;295;51.628;7.520;2022-08-19T08:27:42;18.77;;;15.50;;
616;SDS011;295;51.628;7.520;2022-08-19T08:30:31;19.48;;;17.58;;
616;SDS011;295;51.628;7.520;2022-08-19T08:33:25;20.73;;;18.75;;
616;SDS011;295;51.628;7.520;2022-08-19T08:36:20;22.30;;;17.95;;
616;SDS011;295;51.628;7.520;2022-08-19T08:39:12;20.23;;;18.35;;
616;SDS011;295;51.628;7.520;2022-08-19T08:42:04;20.90;;;19.00;;
616;SDS011;295;51.628;7.520;2022-08-19T08:45:03;20.00;;;17.88;;
616;SDS011;295;51.628;7.520;2022-08-19T08:47:58;17.10;;;15.40;;
616;SDS011;295;51.628;7.520;2022-08-19T08:51:10;17.35;;;15.70;;
616;SDS011;295;51.628;7.520;2022-08-19T08:54:06;16.92;;;15.27;;
616;SDS011;295;51.628;7.520;2022-08-19T08:56:56;16.95;;;15.40;;
616;SDS011;295;51.628;7.520;2022-08-19T08:59:45;15.82;;;14.25;;
616;SDS011;295;51.628;7.520;2022-08-19T09:02:37;11.88;;;10.98;;
616;SDS011;295;51.628;7.520;2022-08-19T09:05:33;11.00;;;10.10;;
616;SDS011;295;51.628;7.520;2022-08-19T09:08:39;9.50;;;8.70;;
616;SDS011;295;51.628;7.520;2022-08-19T09:11:39;10.82;;;9.82;;
616;SDS011;295;51.628;7.520;2022-08-19T09:14:35;8.88;;;8.18;;
616;SDS011;295;51.628;7.520;2022-08-19T09:17:39;11.68;;;10.68;;
616;SDS011;295;51.628;7.520;2022-08-19T09:20:36;10.68;;;9.80;;
616;SDS011;295;51.628;7.520;2022-08-19T09:23:28;9.32;;;8.63;;
616;SDS011;295;51.628;7.520;2022-08-19T09:26:23;9.10;;;8.40;;
616;SDS011;295;51.628;7.520;2022-08-19T09:29:32;9.68;;;8.98;;
616;SDS011;295;51.628;7.520;2022-08-19T09:32:21;8.40;;;7.70;;
616;SDS011;295;51.628;7.520;2022-08-19T09:35:13;8.88;;;8.18;;
616;SDS011;295;51.628;7.520;2022-08-19T09:38:02;8.57;;;7.57;;
616;SDS011;295;51.628;7.520;2022-08-19T09:40:50;9.02;;;8.32;;
616;SDS011;295;51.628;7.520;2022-08-19T09:43:44;9.00;;;8.20;;
616;SDS011;295;51.628;7.520;2022-08-19T09:46:33;10.77;;;9.88;;
616;SDS011;295;51.628;7.520;2022-08-19T09:49:24;9.68;;;8.52;;
616;SDS011;295;51.628;7.520;2022-08-19T09:52:14;8.43;;;7.68;;
616;SDS011;295;51.628;7.520;2022-08-19T09:55:04;6.63;;;6.13;;
616;SDS011;295;51.628;7.520;2022-08-19T09:57:55;6.97;;;5.68;;
616;SDS011;295;51.628;7.520;2022-08-19T10:00:45;7.70;;;7.00;;
616;SDS011;295;51.628;7.520;2022-08-19T10:03:37;9.23;;;8.40;;
616;SDS011;295;51.628;7.520;2022-08-19T10:06:27;8.55;;;6.95;;
616;SDS011;295;51.628;7.520;2022-08-19T10:09:32;7.13;;;6.53;;
616;SDS011;295;51.628;7.520;2022-08-19T10:12:21;8.63;;;7.88;;
616;SDS011;295;51.628;7.520;2022-08-19T10:15:12;8.50;;;7.90;;
616;SDS011;295;51.628;7.520;2022-08-19T10:18:03;9.05;;;7.78;;
616;SDS011;295;51.628;7.520;2022-08-19T10:21:01;8.95;;;8.30;;
616;SDS011;295;51.628;7.520;2022-08-19T10:23:54;8.38;;;7.68;;
616;SDS011;295;51.628;7.520;2022-08-19T10:26:44;8.00;;;7.40;;
616;SDS011;295;51.628;7.520;2022-08-19T10:29:43;7.53;;;6.97;;
616;SDS011;295;51.628;7.520;2022-08-19T10:32:32;8.98;;;8.05;;
616;SDS011;295;51.628;7.520;2022-08-19T10:35:22;7.88;;;7.18;;
616;SDS011;295;51.628;7.520;2022-08-19T10:38:13;9.60;;;8.77;;
616;SDS011;295;51.628;7.520;2022-08-19T10:41:09;9.75;;;8.85;;
616;SDS011;295;51.628;7.520;2022-08-19T10:43:58;8.40;;;7.80;;
616;SDS011;295;51.628;7.520;2022-08-19T10:46:50;8.85;;;8.15;;
616;SDS011;295;51.628;7.520;2022-08-19T10:49:42;9.25;;;8.45;;
616;SDS011;295;51.628;7.520;2022-08-19T10:52:51;8.40;;;7.70;;
616;SDS011;295;51.628;7.520;2022-08-19T10:55:44;7.75;;;7.18;;
616;SDS011;295;51.628;7.520;2022-08-19T10:58:50;8.70;;;7.80;;
616;SDS011;295;51.628;7.520;2022-08-19T11:01:39;7.78;;;7.07;;
616;SDS011;295;51.628;7.520;2022-08-19T11:04:31;7.63;;;7.00;;
616;SDS011;295;51.628;7.520;2022-08-19T11:07:21;9.23;;;8.63;;
616;SDS011;295;51.628;7.520;2022-08-19T11:10:13;7.80;;;7.15;;
616;SDS011;295;51.628;7.520;2022-08-19T11:13:08;8.52;;;7.90;;
616;SDS011;295;51.628;7.520;2022-08-19T11:15:57;9.88;;;9.15;;
616;SDS011;295;51.628;7.520;2022-08-19T11:18:53;10.63;;;9.80;;
616;SDS011;295;51.628;7.520;2022-08-19T11:21:46;10.38;;;9.57;;
616;SDS011;295;51.628;7.520;2022-08-19T11:24:35;10.05;;;9.35;;
616;SDS011;295;51.628;7.520;2022-08-19T11:27:26;10.02;;;9.13;;
616;SDS011;295;51.628;7.520;2022-08-19T11:30:15;11.10;;;10.25;;
616;SDS011;295;51.628;7.520;2022-08-19T11:33:04;10.45;;;9.35;;
616;SDS011;295;51.628;7.520;2022-08-19T11:35:53;8.57;;;7.97;;
616;SDS011;295;51.628;7.520;2022-08-19T11:38:43;9.32;;;8.63;;
616;SDS011;295;51.628;7.520;2022-08-19T11:41:31;8.73;;;7.95;;
616;SDS011;295;51.628;7.520;2022-08-19T11:44:22;10.43;;;9.55;;
616;SDS011;295;51.628;7.520;2022-08-19T11:47:12;12.40;;;9.00;;
616;SDS011;295;51.628;7.520;2022-08-19T11:50:01;10.00;;;9.27;;
616;SDS011;295;51.628;7.520;2022-08-19T11:52:49;11.07;;;8.82;;
616;SDS011;295;51.628;7.520;2022-08-19T11:55:39;8.35;;;7.75;;
616;SDS011;295;51.628;7.520;2022-08-19T11:58:30;6.82;;;6.32;;
616;SDS011;295;51.628;7.520;2022-08-19T12:01:21;8.90;;;7.05;;
616;SDS011;295;51.628;7.520;2022-08-19T12:04:10;7.68;;;6.63;;
616;SDS011;295;51.628;7.520;2022-08-19T12:06:59;8.18;;;7.40;;
616;SDS011;295;51.628;7.520;2022-08-19T12:09:49;7.60;;;6.90;;
616;SDS011;295;51.628;7.520;2022-08-19T12:12:38;6.15;;;5.75;;
616;SDS011;295;51.628;7.520;2022-08-19T12:15:29;6.07;;;5.60;;
616;SDS011;295;51.628;7.520;2022-08-19T12:18:24;5.68;;;5.18;;
616;SDS011;295;51.628;7.520;2022-08-19T12:21:13;7.70;;;7.00;;
616;SDS011;295;51.628;7.520;2022-08-19T12:24:03;10.48;;;7.70;;
616;SDS011;295;51.628;7.520;2022-08-19T12:26:52;9.70;;;8.98;;
616;SDS011;295;51.628;7.520;2022-08-19T12:29:49;8.43;;;7.63;;
616;SDS011;295;51.628;7.520;2022-08-19T12:32:38;10.90;;;10.10;;
616;SDS011;295;51.628;7.520;2022-08-19T12:35:28;15.40;;;9.73;;
616;SDS011;295;51.628;7.520;2022-08-19T12:38:17;8.82;;;8.18;;
616;SDS011;295;51.628;7.520;2022-08-19T12:41:09;9.63;;;8.93;;
616;SDS011;295;51.628;7.520;2022-08-19T12:43:58;6.40;;;5.80;;
616;SDS011;295;51.628;7.520;2022-08-19T12:46:47;6.82;;;6.25;;
616;SDS011;295;51.628;7.520;2022-08-19T12:49:41;7.75;;;7.13;;
616;SDS011;295;51.628;7.520;2022-08-19T12:52:42;9.10;;;8.40;;
616;SDS011;295;51.628;7.520;2022-08-19T12:55:31;9.55;;;8.75;;
616;SDS011;295;51.628;7.520;2022-08-19T12:58:20;10.70;;;9.77;;
616;SDS011;295;51.628;7.520;2022-08-19T13:01:14;9.63;;;8.85;;
616;SDS011;295;51.628;7.520;2022-08-19T13:04:09;11.50;;;10.48;;
616;SDS011;295;51.628;7.520;2022-08-19T13:07:02;11.40;;;10.57;;
616;SDS011;295;51.628;7.520;2022-08-19T13:09:54;9.60;;;8.65;;
616;SDS011;295;51.628;7.520;2022-08-19T13:12:45;9.23;;;8.63;;
616;SDS011;295;51.628;7.520;2022-08-19T13:15:36;10.45;;;9.45;;
616;SDS011;295;51.628;7.520;2022-08-19T13:18:26;9.73;;;8.95;;
616;SDS011;295;51.628;7.520;2022-08-19T13:21:15;9.13;;;8.32;;
616;SDS011;295;51.628;7.520;2022-08-19T13:24:08;8.00;;;7.30;;
616;SDS011;295;51.628;7.520;2022-08-19T13:26:58;9.00;;;8.07;;
616;SDS011;295;51.628;7.520;2022-08-19T13:29:47;8.40;;;6.82;;
616;SDS011;295;51.628;7.520;2022-08-19T13:32:54;6.32;;;5.82;;
616;SDS011;295;51.628;7.520;2022-08-19T13:36:02;7.45;;;6.85;;
616;SDS011;295;51.628;7.520;2022-08-19T13:38:54;7.60;;;7.05;;
616;SDS011;295;51.628;7.520;2022-08-19T13:41:43;8.43;;;7.82;;
616;SDS011;295;51.628;7.520;2022-08-19T13:44:36;7.35;;;6.85;;
616;SDS011;295;51.628;7.520;2022-08-19T13:47:27;7.88;;;7.28;;
616;SDS011;295;51.628;7.520;2022-08-19T13:50:17;8.40;;;7.70;;
616;SDS011;295;51.628;7.520;2022-08-19T13:53:07;9.05;;;8.18;;
616;SDS011;295;51.628;7.520;2022-08-19T13:55:57;7.82;;;7.28;;
616;SDS011;295;51.628;7.520;2022-08-19T13:58:46;8.15;;;7.57;;
616;SDS011;295;51.628;7.520;2022-08-19T14:01:37;9.60;;;8.93;;
616;SDS011;295;51.628;7.520;2022-08-19T14:04:27;9.02;;;8.38;;
616;SDS011;295;51.628;7.520;2022-08-19T14:07:16;9.23;;;8.63;;
616;SDS011;295;51.628;7.520;2022-08-19T14:10:06;9.57;;;8.73;;
616;SDS011;295;51.628;7.520;2022-08-19T14:12:55;9.30;;;8.60;;
616;SDS011;295;51.628;7.520;2022-08-19T14:15:47;8.30;;;7.70;;
616;SDS011;295;51.628;7.520;2022-08-19T14:18:39;9.38;;;8.50;;
616;SDS011;295;51.628;7.520;2022-08-19T14:21:30;8.07;;;7.38;;
616;SDS011;295;51.628;7.520;2022-08-19T14:24:25;7.25;;;6.75;;
616;SDS011;295;51.628;7.520;2022-08-19T14:27:14;7.63;;;7.03;;
616;SDS011;295;51.628;7.520;2022-08-19T14:30:05;7.03;;;6.53;;
616;SDS011;295;51.628;7.520;2022-08-19T14:32:55;7.68;;;7.07;;
616;SDS011;295;51.628;7.520;2022-08-19T14:35:47;7.82;;;7.22;;
616;SDS011;295;51.628;7.520;2022-08-19T14:38:46;8.00;;;7.30;;
616;SDS011;295;51.628;7.520;2022-08-19T14:41:36;7.70;;;6.90;;
616;SDS011;295;51.628;7.520;2022-08-19T14:44:25;7.50;;;6.90;;
616;SDS011;295;51.628;7.520;2022-08-19T14:47:15;7.10;;;6.50;;
616;SDS011;295;51.628;7.520;2022-08-19T14:50:05;7.03;;;6.25;;
616;SDS011;295;51.628;7.520;2022-08-19T14:53:10;7.18;;;6.57;;
616;SDS011;295;51.628;7.520;2022-08-19T14:56:12;6.38;;;5.97;;
616;SDS011;295;51.628;7.520;2022-08-19T14:59:01;7.10;;;6.50;;
616;SDS011;295;51.628;7.520;2022-08-19T15:01:50;6.40;;;5.78;;
616;SDS011;295;51.628;7.520;2022-08-19T15:04:40;6.93;;;5.63;;
616;SDS011;295;51.628;7.520;2022-08-19T15:07:30;6.63;;;6.00;;
616;SDS011;295;51.628;7.520;2022-08-19T15:10:21;6.05;;;5.47;;
616;SDS011;295;51.628;7.520;2022-08-19T15:13:11;5.57;;;5.18;;
616;SDS011;295;51.628;7.520;2022-08-19T15:16:00;8.27;;;5.18;;
616;SDS011;295;51.628;7.520;2022-08-19T15:18:49;6.15;;;5.65;;
616;SDS011;295;51.628;7.520;2022-08-19T15:21:38;6.10;;;5.50;;
616;SDS011;295;51.628;7.520;2022-08-19T15:24:27;5.57;;;5.07;;
616;SDS011;295;51.628;7.520;2022-08-19T15:27:18;6.25;;;5.28;;
616;SDS011;295;51.628;7.520;2022-08-19T15:30:07;6.03;;;5.35;;
616;SDS011;295;51.628;7.520;2022-08-19T15:32:57;7.25;;;5.18;;
616;SDS011;295;51.628;7.520;2022-08-19T15:35:47;4.38;;;4.05;;
616;SDS011;295;51.628;7.520;2022-08-19T15:38:40;4.10;;;3.65;;
616;SDS011;295;51.628;7.520;2022-08-19T15:41:32;4.25;;;3.85;;
616;SDS011;295;51.628;7.520;2022-08-19T15:44:25;6.00;;;5.00;;
616;SDS011;295;51.628;7.520;2022-08-19T15:47:14;5.78;;;5.25;;
616;SDS011;295;51.628;7.520;2022-08-19T15:50:07;5.85;;;4.90;;
616;SDS011;295;51.628;7.520;2022-08-19T15:52:57;4.40;;;4.10;;
616;SDS011;295;51.628;7.520;2022-08-19T15:55:47;4.75;;;4.13;;
616;SDS011;295;51.628;7.520;2022-08-19T15:58:38;7.25;;;4.80;;
616;SDS011;295;51.628;7.520;2022-08-19T16:01:45;5.00;;;4.20;;
616;SDS011;295;51.628;7.520;2022-08-19T16:04:56;5.55;;;4.10;;
616;SDS011;295;51.628;7.520;2022-08-19T16:08:03;5.05;;;4.55;;
616;SDS011;295;51.628;7.520;2022-08-19T16:10:52;6.18;;;4.43;;
616;SDS011;295;51.628;7.520;2022-08-19T16:13:40;4.40;;;4.05;;
616;SDS011;295;51.628;7.520;2022-08-19T16:16:31;5.43;;;4.40;;
616;SDS011;295;51.628;7.520;2022-08-19T16:19:24;6.15;;;4.78;;
616;SDS011;295;51.628;7.520;2022-08-19T16:22:13;6.30;;;5.70;;
616;SDS011;295;51.628;7.520;2022-08-19T16:25:03;5.88;;;5.25;;
616;SDS011;295;51.628;7.520;2022-08-19T16:27:54;6.38;;;5.80;;
616;SDS011;295;51.628;7.520;2022-08-19T16:30:54;6.40;;;5.80;;
616;SDS011;295;51.628;7.520;2022-08-19T16:33:43;7.38;;;6.32;;
616;SDS011;295;51.628;7.520;2022-08-19T16:36:34;7.40;;;6.70;;
616;SDS011;295;51.628;7.520;2022-08-19T16:39:29;7.45;;;6.75;;
616;SDS011;295;51.628;7.520;2022-08-19T16:42:20;7.32;;;6.72;;
616;SDS011;295;51.628;7.520;2022-08-19T16:45:09;7.75;;;7.05;;
616;SDS011;295;51.628;7.520;2022-08-19T16:47:58;8.93;;;7.90;;
616;SDS011;295;51.628;7.520;2022-08-19T16:50:49;6.82;;;6.22;;
616;SDS011;295;51.628;7.520;2022-08-19T16:53:40;7.68;;;6.88;;
616;SDS011;295;51.628;7.520;2022-08-19T16:56:29;6.65;;;6.05;;
616;SDS011;295;51.628;7.520;2022-08-19T16:59:19;7.25;;;6.55;;
616;SDS011;295;51.628;7.520;2022-08-19T17:02:12;7.22;;;6.60;;
616;SDS011;295;51.628;7.520;2022-08-19T17:05:01;8.45;;;7.07;;
616;SDS011;295;51.628;7.520;2022-08-19T17:07:52;6.70;;;6.00;;
616;SDS011;295;51.628;7.520;2022-08-19T17:10:49;7.75;;;7.05;;
616;SDS011;295;51.628;7.520;2022-08-19T17:14:00;8.32;;;6.75;;
616;SDS011;295;51.628;7.520;2022-08-19T17:16:51;6.78;;;6.18;;
616;SDS011;295;51.628;7.520;2022-08-19T17:19:41;6.47;;;5.88;;
616;SDS011;295;51.628;7.520;2022-08-19T17:22:30;6.68;;;6.10;;
616;SDS011;295;51.628;7.520;2022-08-19T17:25:23;7.53;;;6.82;;
616;SDS011;295;51.628;7.520;2022-08-19T17:28:14;5.95;;;5.10;;
616;SDS011;295;51.628;7.520;2022-08-19T17:31:04;7.17;;;6.47;;
616;SDS011;295;51.628;7.520;2022-08-19T17:33:56;13.70;;;6.30;;
616;SDS011;295;51.628;7.520;2022-08-19T17:36:51;6.87;;;6.20;;
616;SDS011;295;51.628;7.520;2022-08-19T17:39:43;6.23;;;5.63;;
616;SDS011;295;51.628;7.520;2022-08-19T17:42:34;5.67;;;5.03;;
616;SDS011;295;51.628;7.520;2022-08-19T17:45:25;7.17;;;5.60;;
616;SDS011;295;51.628;7.520;2022-08-19T17:48:14;8.90;;;5.80;;
616;SDS011;295;51.628;7.520;2022-08-19T17:51:12;6.40;;;5.80;;
616;SDS011;295;51.628;7.520;2022-08-19T17:54:01;6.23;;;5.60;;
616;SDS011;295;51.628;7.520;2022-08-19T17:56:51;7.03;;;5.40;;
616;SDS011;295;51.628;7.520;2022-08-19T17:59:41;7.63;;;6.10;;
616;SDS011;295;51.628;7.520;2022-08-19T18:02:32;6.90;;;5.50;;
616;SDS011;295;51.628;7.520;2022-08-19T18:05:22;6.70;;;5.63;;
616;SDS011;295;51.628;7.520;2022-08-19T18:08:11;5.50;;;4.83;;